createdAt,value
2019-03-25T00:00:53.838Z,100775.36
2019-03-25T00:03:25.188Z,100768.48
2019-03-25T00:05:56.019Z,100763.27
2019-03-25T00:08:26.649Z,100771.57
2019-03-25T00:10:57.279Z,100768.95
2019-03-25T00:13:28.353Z,100765.22
2019-03-25T00:15:59.055Z,100763.68
2019-03-25T00:18:29.891Z,100757.67
2019-03-25T00:21:00.620Z,100759.34
2019-03-25T00:23:31.561Z,100765.69
2019-03-25T00:26:02.597Z,100756.98
2019-03-25T00:28:33.337Z,100752.65
2019-03-25T00:31:04.270Z,100749.17
2019-03-25T00:33:35.514Z,100747.97
2019-03-25T00:36:06.531Z,100745.44
2019-03-25T00:38:37.384Z,100740.07
2019-03-25T00:41:08.138Z,100741.73
2019-03-25T00:43:38.954Z,100733.39
2019-03-25T00:46:10.401Z,100735.45
2019-03-25T00:48:41.137Z,100730.06
2019-03-25T00:51:12.586Z,100724.98
2019-03-25T00:53:42.906Z,100731.34
2019-03-25T00:56:14.049Z,100733.90
2019-03-25T00:58:44.680Z,100724.13
2019-03-25T01:01:15.517Z,100724.47
2019-03-25T01:03:47.120Z,100726.30
2019-03-25T01:06:17.575Z,100721.25
2019-03-25T01:08:49.844Z,100730.67
2019-03-25T01:11:20.278Z,100731.80
2019-03-25T01:13:51.963Z,100736.17
2019-03-25T01:16:23.389Z,100734.41
2019-03-25T01:18:54.226Z,100733.55
2019-03-25T01:21:24.960Z,100727.71
2019-03-25T01:23:55.689Z,100730.64
2019-03-25T01:26:27.137Z,100723.42
2019-03-25T01:28:59.434Z,100728.90
2019-03-25T01:31:30.139Z,100720.33
2019-03-25T01:34:00.835Z,100716.71
2019-03-25T01:36:32.833Z,100718.11
2019-03-25T01:39:03.878Z,100722.52
2019-03-25T01:41:36.236Z,100716.13
2019-03-25T01:44:06.771Z,100722.63
2019-03-25T01:46:37.504Z,100713.98
2019-03-25T01:49:08.343Z,100711.00
2019-03-25T01:51:39.073Z,100713.45
2019-03-25T01:54:10.009Z,100715.11
2019-03-25T01:56:41.005Z,100719.45
2019-03-25T01:59:12.905Z,100717.43
2019-03-25T02:01:43.641Z,100712.77
2019-03-25T02:04:14.681Z,100712.53
2019-03-25T02:06:45.719Z,100721.44
2019-03-25T02:09:16.353Z,100721.58
2019-03-25T02:11:47.899Z,100714.38
2019-03-25T02:14:18.943Z,100710.97
2019-03-25T02:16:49.262Z,100712.08
2019-03-25T02:19:19.993Z,100709.63
2019-03-25T02:21:51.243Z,100712.37
2019-03-25T02:24:22.381Z,100705.63
2019-03-25T02:26:54.856Z,100710.22
2019-03-25T02:29:26.107Z,100712.70
2019-03-25T02:31:56.936Z,100659.22
2019-03-25T02:34:27.667Z,100698.96
2019-03-25T02:36:58.398Z,100703.41
2019-03-25T02:39:29.803Z,100699.28
2019-03-25T02:42:00.685Z,100695.90
2019-03-25T02:44:32.003Z,100707.17
2019-03-25T02:47:02.766Z,100671.31
2019-03-25T02:49:33.598Z,100710.73
2019-03-25T02:52:04.339Z,100709.69
2019-03-25T02:54:35.473Z,100711.21
2019-03-25T02:57:06.316Z,100712.39
2019-03-25T02:59:37.755Z,100707.90
2019-03-25T03:02:08.290Z,100705.41
2019-03-25T03:04:38.855Z,100708.05
2019-03-25T03:07:09.647Z,100724.27
2019-03-25T03:09:40.380Z,100726.84
2019-03-25T03:12:11.114Z,100725.94
2019-03-25T03:14:42.871Z,100719.77
2019-03-25T03:17:13.140Z,100720.58
2019-03-25T03:19:44.527Z,100718.84
2019-03-25T03:22:15.167Z,100716.68
2019-03-25T03:24:45.805Z,100719.45
2019-03-25T03:27:16.436Z,100722.19
2019-03-25T03:29:47.263Z,100718.48
2019-03-25T03:32:18.019Z,100716.25
2019-03-25T03:34:48.735Z,100720.94
2019-03-25T03:37:19.668Z,100722.78
2019-03-25T03:39:50.601Z,100724.03
2019-03-25T03:42:21.243Z,100731.14
2019-03-25T03:44:51.555Z,100737.12
2019-03-25T03:47:22.291Z,100729.58
2019-03-25T03:49:52.966Z,100722.23
2019-03-25T03:52:24.347Z,100728.25
2019-03-25T03:54:55.916Z,100728.91
2019-03-25T03:57:27.516Z,100723.52
2019-03-25T03:59:57.919Z,100736.22
2019-03-25T04:02:29.744Z,100736.11
2019-03-25T04:05:00.525Z,100736.61
2019-03-25T04:07:33.473Z,100739.97
2019-03-25T04:10:06.046Z,100738.64
2019-03-25T04:12:37.496Z,100737.43
2019-03-25T04:15:08.017Z,100735.47
2019-03-25T04:17:40.836Z,100733.83
2019-03-25T04:20:11.639Z,100737.02
2019-03-25T04:22:42.475Z,100735.37
2019-03-25T04:25:16.048Z,100734.09
2019-03-25T04:27:46.398Z,100732.06
2019-03-25T04:30:17.031Z,100723.66
2019-03-25T04:32:48.125Z,100725.37
2019-03-25T04:35:20.341Z,100730.58
2019-03-25T04:37:50.759Z,100720.91
2019-03-25T04:40:21.493Z,100722.01
2019-03-25T04:42:52.114Z,100721.78
2019-03-25T04:45:22.847Z,100711.53
2019-03-25T04:47:53.376Z,100710.59
2019-03-25T04:50:24.109Z,100704.49
2019-03-25T04:52:54.840Z,100708.34
2019-03-25T04:55:25.575Z,100707.36
2019-03-25T04:57:56.122Z,100703.82
2019-03-25T05:00:37.584Z,100707.62
2019-03-25T05:03:08.225Z,100715.72
2019-03-25T05:05:40.282Z,100704.62
2019-03-25T05:08:10.842Z,100717.14
2019-03-25T05:10:41.440Z,100704.31
2019-03-25T05:13:12.378Z,100707.27
2019-03-25T05:15:43.108Z,100711.07
2019-03-25T05:18:13.942Z,100702.16
2019-03-25T05:20:44.578Z,100706.98
2019-03-25T05:23:15.750Z,100700.46
2019-03-25T05:25:45.947Z,100700.80
2019-03-25T05:28:16.971Z,100704.42
2019-03-25T05:30:47.810Z,100699.24
2019-03-25T05:33:18.543Z,100695.59
2019-03-25T05:35:51.736Z,100691.44
2019-03-25T05:38:23.601Z,100689.16
2019-03-25T05:40:54.058Z,100682.94
2019-03-25T05:43:25.160Z,100683.90
2019-03-25T05:45:55.962Z,100688.01
2019-03-25T05:48:26.827Z,100684.18
2019-03-25T05:50:57.562Z,100685.90
2019-03-25T05:53:28.430Z,100683.63
2019-03-25T05:55:59.041Z,100693.58
2019-03-25T05:58:30.782Z,100687.63
2019-03-25T06:01:01.413Z,100691.68
2019-03-25T06:03:32.658Z,100695.01
2019-03-25T06:06:03.494Z,100685.89
2019-03-25T06:08:35.045Z,100684.94
2019-03-25T06:11:05.777Z,100694.91
2019-03-25T06:13:36.919Z,100690.82
2019-03-25T06:16:07.648Z,100686.50
2019-03-25T06:18:38.895Z,100688.88
2019-03-25T06:21:12.183Z,100685.05
2019-03-25T06:23:42.917Z,100688.16
2019-03-25T06:26:13.653Z,100675.91
2019-03-25T06:28:44.995Z,100679.34
2019-03-25T06:31:15.731Z,100674.66
2019-03-25T06:33:47.079Z,100675.28
2019-03-25T06:36:17.722Z,100684.03
2019-03-25T06:38:48.641Z,100674.10
2019-03-25T06:41:19.786Z,100636.81
2019-03-25T06:43:51.755Z,100676.26
2019-03-25T06:46:22.415Z,100676.63
2019-03-25T06:48:52.996Z,100679.69
2019-03-25T06:51:23.845Z,100677.02
2019-03-25T06:53:54.472Z,100679.08
2019-03-25T06:56:25.110Z,100679.78
2019-03-25T06:58:55.845Z,100679.20
2019-03-25T07:01:26.564Z,100675.19
2019-03-25T07:03:57.090Z,100674.94
2019-03-25T07:06:28.648Z,100676.22
2019-03-25T07:08:59.282Z,100672.97
2019-03-25T07:11:30.791Z,100662.07
2019-03-25T07:14:01.357Z,100620.23
2019-03-25T07:16:32.087Z,100655.92
2019-03-25T07:19:02.922Z,100650.95
2019-03-25T07:21:34.169Z,100647.78
2019-03-25T07:24:05.106Z,100649.69
2019-03-25T07:26:35.731Z,100645.50
2019-03-25T07:29:06.573Z,100641.23
2019-03-25T07:31:38.219Z,100642.38
2019-03-25T07:34:09.164Z,100643.38
2019-03-25T07:36:40.213Z,100644.11
2019-03-25T07:39:11.635Z,100643.77
2019-03-25T07:41:42.050Z,100647.88
2019-03-25T07:44:12.854Z,100636.83
2019-03-25T07:46:43.543Z,100637.87
2019-03-25T07:49:15.400Z,100629.70
2019-03-25T07:51:46.540Z,100624.00
2019-03-25T07:54:17.177Z,100621.61
2019-03-25T07:56:48.748Z,100613.20
2019-03-25T07:59:20.252Z,100611.36
2019-03-25T08:01:50.916Z,100612.77
2019-03-25T08:04:21.548Z,100616.02
2019-03-25T08:06:52.281Z,100603.83
2019-03-25T08:09:23.718Z,100612.80
2019-03-25T08:11:54.108Z,100616.30
2019-03-25T08:14:24.894Z,100616.30
2019-03-25T08:16:55.707Z,100617.56
2019-03-25T08:19:26.366Z,100624.56
2019-03-25T08:21:56.999Z,100622.12
2019-03-25T08:24:29.461Z,100622.95
2019-03-25T08:27:00.070Z,100636.72
2019-03-25T08:29:30.806Z,100628.25
2019-03-25T08:32:01.545Z,100628.05
2019-03-25T08:34:32.680Z,100638.31
2019-03-25T08:37:04.503Z,100646.47
2019-03-25T08:39:35.168Z,100635.83
2019-03-25T08:42:05.695Z,100642.73
2019-03-25T08:44:36.942Z,100648.95
2019-03-25T08:47:07.777Z,100650.77
2019-03-25T08:49:38.508Z,100652.81
2019-03-25T08:52:09.161Z,100645.12
2019-03-25T08:54:39.972Z,100644.26
2019-03-25T08:57:11.854Z,100640.91
2019-03-25T09:02:24.358Z,100656.13
2019-03-25T09:04:54.954Z,100640.90
2019-03-25T09:07:25.617Z,100635.88
2019-03-25T09:09:56.218Z,100635.23
2019-03-25T09:12:26.984Z,100626.81
2019-03-25T09:14:57.716Z,100619.05
2019-03-25T09:17:28.854Z,100631.16
2019-03-25T09:19:59.513Z,100627.69
2019-03-25T09:22:30.321Z,100626.19
2019-03-25T09:25:01.201Z,100632.90
2019-03-25T09:27:32.015Z,100633.53
2019-03-25T09:30:03.619Z,100628.90
2019-03-25T09:32:34.682Z,100605.99
2019-03-25T09:35:07.081Z,100609.50
2019-03-25T09:37:38.215Z,100594.34
2019-03-25T09:40:08.825Z,100589.63
2019-03-25T09:42:40.273Z,100594.82
2019-03-25T09:45:11.103Z,100590.20
2019-03-25T09:47:44.198Z,100580.14
2019-03-25T09:50:16.156Z,100580.39
2019-03-25T09:52:47.193Z,100589.23
2019-03-25T09:55:18.420Z,100580.59
2019-03-25T09:57:49.277Z,100573.81
2019-03-25T10:00:24.320Z,100574.69
2019-03-25T10:02:54.334Z,100575.56
2019-03-25T10:05:24.873Z,100567.98
2019-03-25T10:07:55.584Z,100565.45
2019-03-25T10:10:26.832Z,100559.38
2019-03-25T10:12:57.257Z,100580.14
2019-03-25T10:15:28.006Z,100579.59
2019-03-25T10:17:58.996Z,100575.98
2019-03-25T10:20:31.807Z,100580.88
2019-03-25T10:23:02.537Z,100571.90
2019-03-25T10:25:33.273Z,100573.92
2019-03-25T10:28:04.515Z,100566.41
2019-03-25T10:30:35.864Z,100567.28
2019-03-25T10:33:06.598Z,100577.62
2019-03-25T10:35:37.256Z,100570.38
2019-03-25T10:38:19.186Z,100562.70
2019-03-25T10:40:41.146Z,100548.28
2019-03-25T10:43:11.714Z,100545.95
2019-03-25T10:45:42.307Z,100538.87
2019-03-25T10:48:13.758Z,100527.55
2019-03-25T10:50:44.182Z,100524.13
2019-03-25T10:53:15.014Z,100528.67
2019-03-25T10:55:49.327Z,100525.36
2019-03-25T10:58:21.199Z,100513.83
2019-03-25T11:00:51.740Z,100521.63
2019-03-25T11:03:22.548Z,100517.35
2019-03-25T11:05:53.200Z,100504.80
2019-03-25T11:08:26.369Z,100497.08
2019-03-25T11:10:58.408Z,100502.03
2019-03-25T11:13:28.720Z,100499.31
2019-03-25T11:16:00.313Z,100483.91
2019-03-25T11:18:31.156Z,100475.03
2019-03-25T11:21:01.841Z,100454.55
2019-03-25T11:23:32.708Z,100459.98
2019-03-25T11:26:03.349Z,100454.34
2019-03-25T11:28:34.079Z,100458.91
2019-03-25T11:31:04.702Z,100455.67
2019-03-25T11:33:35.435Z,100451.44
2019-03-25T11:36:06.683Z,100448.73
2019-03-25T11:38:37.116Z,100445.84
2019-03-25T11:41:07.850Z,100430.41
2019-03-25T11:43:38.672Z,100432.70
2019-03-25T11:46:10.128Z,100422.76
2019-03-25T11:48:40.782Z,100422.68
2019-03-25T11:51:11.854Z,100431.06
2019-03-25T11:53:42.431Z,100416.23
2019-03-25T11:56:13.158Z,100414.03
2019-03-25T11:58:45.936Z,100416.13
2019-03-25T12:01:16.877Z,100414.62
2019-03-25T12:03:47.712Z,100413.70
2019-03-25T12:06:19.083Z,100411.16
2019-03-25T12:08:49.753Z,100413.77
2019-03-25T12:11:20.526Z,100404.35
2019-03-25T12:13:51.258Z,100405.51
2019-03-25T12:16:23.195Z,100408.97
2019-03-25T12:18:53.720Z,100406.95
2019-03-25T12:21:24.599Z,100397.80
2019-03-25T12:23:55.214Z,100395.47
2019-03-25T12:26:26.247Z,100402.91
2019-03-25T12:28:57.805Z,100387.73
2019-03-25T12:31:29.511Z,100385.36
2019-03-25T12:34:00.082Z,100388.34
2019-03-25T12:36:30.923Z,100390.51
2019-03-25T12:39:01.651Z,100395.92
2019-03-25T12:41:32.328Z,100395.60
2019-03-25T12:44:03.625Z,100386.50
2019-03-25T12:46:34.259Z,100381.73
2019-03-25T12:49:04.995Z,100374.62
2019-03-25T12:51:35.722Z,100376.84
2019-03-25T12:54:07.173Z,100359.29
2019-03-25T12:56:38.105Z,100371.00
2019-03-25T12:59:09.787Z,100364.82
2019-03-25T13:01:52.156Z,100366.72
2019-03-25T13:04:13.390Z,100375.91
2019-03-25T13:06:44.220Z,100362.88
2019-03-25T13:09:14.851Z,100358.36
2019-03-25T13:11:45.582Z,100358.16
2019-03-25T13:14:16.632Z,100347.33
2019-03-25T13:16:49.763Z,100333.48
2019-03-25T13:19:20.544Z,100340.30
2019-03-25T13:21:52.268Z,100345.51
2019-03-25T13:24:23.036Z,100346.57
2019-03-25T13:26:53.870Z,100341.78
2019-03-25T13:29:25.113Z,100334.89
2019-03-25T13:31:55.438Z,100345.13
2019-03-25T13:34:26.077Z,100336.08
2019-03-25T13:36:57.106Z,100342.31
2019-03-25T13:39:27.736Z,100341.45
2019-03-25T13:41:58.470Z,100349.06
2019-03-25T13:44:29.410Z,100347.42
2019-03-25T13:47:00.243Z,100332.05
2019-03-25T13:49:31.791Z,100330.07
2019-03-25T13:52:04.162Z,100326.84
2019-03-25T13:54:35.408Z,100322.84
2019-03-25T13:57:08.096Z,100343.66
2019-03-25T13:59:38.424Z,100331.13
2019-03-25T14:02:09.142Z,100336.92
2019-03-25T14:04:41.514Z,100350.66
2019-03-25T14:07:13.783Z,100349.25
2019-03-25T14:09:46.359Z,100343.06
2019-03-25T14:12:17.095Z,100349.40
2019-03-25T14:14:49.365Z,100346.88
2019-03-25T14:17:20.097Z,100309.07
2019-03-25T14:19:51.540Z,100345.87
2019-03-25T14:22:23.402Z,100342.79
2019-03-25T14:24:54.027Z,100353.88
2019-03-25T14:27:24.758Z,100358.01
2019-03-25T14:29:55.494Z,100363.95
2019-03-25T14:32:27.774Z,100353.53
2019-03-25T14:34:58.855Z,100355.22
2019-03-25T14:37:29.639Z,100343.61
2019-03-25T14:40:00.887Z,100344.41
2019-03-25T14:42:31.823Z,100346.70
2019-03-25T14:45:03.075Z,100355.38
2019-03-25T14:47:33.810Z,100350.27
2019-03-25T14:50:05.802Z,100345.47
2019-03-25T14:52:36.288Z,100333.66
2019-03-25T14:55:10.511Z,100320.96
2019-03-25T14:57:41.339Z,100320.83
2019-03-25T15:00:12.479Z,100326.13
2019-03-25T15:02:43.213Z,100326.64
2019-03-25T15:05:14.147Z,100326.03
2019-03-25T15:07:44.876Z,100318.05
2019-03-25T15:10:18.173Z,100317.47
2019-03-25T15:12:49.210Z,100315.11
2019-03-25T15:15:19.943Z,100312.95
2019-03-25T15:17:50.677Z,100308.31
2019-03-25T15:20:21.405Z,100314.34
2019-03-25T15:22:52.249Z,100316.27
2019-03-25T15:25:23.077Z,100310.97
2019-03-25T15:27:54.259Z,100321.60
2019-03-25T15:30:35.208Z,100323.95
2019-03-25T15:32:57.429Z,100319.16
2019-03-25T15:35:28.466Z,100319.62
2019-03-25T15:38:00.125Z,100319.36
2019-03-25T15:40:31.328Z,100319.16
2019-03-25T15:43:02.302Z,100312.67
2019-03-25T15:45:33.046Z,100316.78
2019-03-25T15:48:04.591Z,100318.77
2019-03-25T15:50:35.814Z,100319.84
2019-03-25T15:53:06.978Z,100313.78
2019-03-25T15:55:37.600Z,100306.77
2019-03-25T15:58:08.989Z,100314.05
2019-03-25T16:00:47.771Z,100305.08
2019-03-25T16:03:12.453Z,100308.61
2019-03-25T16:05:43.497Z,100302.13
2019-03-25T16:08:14.156Z,100296.34
2019-03-25T16:10:44.973Z,100297.41
2019-03-25T16:13:18.226Z,100299.97
2019-03-25T16:15:48.984Z,100298.13
2019-03-25T16:18:25.556Z,100298.90
2019-03-25T16:20:57.007Z,100303.59
2019-03-25T16:23:28.008Z,100292.27
2019-03-25T16:25:58.883Z,100302.21
2019-03-25T16:28:29.723Z,100305.21
2019-03-25T16:31:00.446Z,100306.20
2019-03-25T16:33:31.073Z,100305.45
2019-03-25T16:36:01.714Z,100300.67
2019-03-25T16:38:33.067Z,100310.47
2019-03-25T16:41:04.002Z,100300.80
2019-03-25T16:43:34.676Z,100302.86
2019-03-25T16:46:05.420Z,100304.98
2019-03-25T16:48:36.314Z,100302.02
2019-03-25T16:51:07.149Z,100302.86
2019-03-25T16:53:37.762Z,100305.95
2019-03-25T16:56:08.936Z,100326.02
2019-03-25T16:58:39.681Z,100322.08
2019-03-25T17:01:10.718Z,100316.53
2019-03-25T17:03:41.432Z,100311.74
2019-03-25T17:06:12.405Z,100315.49
2019-03-25T17:08:43.210Z,100327.65
2019-03-25T17:11:13.982Z,100334.14
2019-03-25T17:13:44.951Z,100334.77
2019-03-25T17:16:15.589Z,100349.38
2019-03-25T17:18:46.829Z,100354.43
2019-03-25T17:21:17.474Z,100360.30
2019-03-25T17:23:48.650Z,100368.38
2019-03-25T17:26:19.199Z,100392.23
2019-03-25T17:28:49.752Z,100386.01
2019-03-25T17:31:21.411Z,100377.45
2019-03-25T17:33:54.817Z,100383.97
2019-03-25T17:36:25.413Z,100390.62
2019-03-25T17:38:56.060Z,100399.40
2019-03-25T17:41:26.752Z,100400.27
2019-03-25T17:43:57.532Z,100402.48
2019-03-25T17:46:28.256Z,100398.25
2019-03-25T17:48:59.805Z,100407.08
2019-03-25T17:51:30.540Z,100412.59
2019-03-25T17:54:01.799Z,100397.55
2019-03-25T17:56:32.152Z,100398.17
2019-03-25T17:59:02.841Z,100398.70
2019-03-25T18:01:34.146Z,100385.82
2019-03-25T18:04:05.336Z,100379.87
2019-03-25T18:06:36.514Z,100372.91
2019-03-25T18:09:07.816Z,100370.09
2019-03-25T18:11:38.452Z,100372.85
2019-03-25T18:14:09.183Z,100367.00
2019-03-25T18:16:40.324Z,100364.91
2019-03-25T18:19:12.110Z,100362.53
2019-03-25T18:21:44.004Z,100362.06
2019-03-25T18:24:14.567Z,100353.71
2019-03-25T18:26:45.373Z,100355.95
2019-03-25T18:29:17.118Z,100360.91
2019-03-25T18:31:48.045Z,100361.27
2019-03-25T18:34:20.313Z,100362.35
2019-03-25T18:36:50.977Z,100364.88
2019-03-25T18:39:22.344Z,100363.91
2019-03-25T18:41:52.679Z,100362.33
2019-03-25T18:44:23.429Z,100354.67
2019-03-25T18:46:54.239Z,100352.15
2019-03-25T18:49:25.790Z,100349.27
2019-03-25T18:51:58.587Z,100339.16
2019-03-25T18:54:28.886Z,100341.38
2019-03-25T18:57:01.474Z,100340.88
2019-03-25T18:59:32.030Z,100340.03
2019-03-25T19:02:02.610Z,100339.16
2019-03-25T19:04:33.454Z,100336.18
2019-03-25T19:07:04.822Z,100338.44
2019-03-25T19:09:35.125Z,100331.20
2019-03-25T19:12:05.787Z,100336.39
2019-03-25T19:14:36.682Z,100330.77
2019-03-25T19:17:07.529Z,100336.50
2019-03-25T19:19:38.874Z,100332.56
2019-03-25T19:22:12.473Z,100334.30
2019-03-25T19:24:42.335Z,100331.50
2019-03-25T19:27:13.439Z,100327.36
2019-03-25T19:29:44.163Z,100333.20
2019-03-25T19:32:15.425Z,100317.21
2019-03-25T19:34:46.173Z,100330.73
2019-03-25T19:37:18.682Z,100327.48
2019-03-25T19:39:49.031Z,100328.23
2019-03-25T19:42:20.520Z,100318.02
2019-03-25T19:44:51.441Z,100320.58
2019-03-25T19:47:22.052Z,100327.38
2019-03-25T19:49:52.729Z,100323.87
2019-03-25T19:52:23.419Z,100317.80
2019-03-25T19:54:54.144Z,100311.94
2019-03-25T19:57:24.825Z,100311.16
2019-03-25T19:59:55.761Z,100314.63
2019-03-25T20:02:26.451Z,100244.37
2019-03-25T20:04:57.180Z,100315.29
2019-03-25T20:07:28.068Z,100325.17
2019-03-25T20:09:58.852Z,100317.53
2019-03-25T20:12:30.404Z,100316.68
2019-03-25T20:15:00.746Z,100329.97
2019-03-25T20:17:33.454Z,100330.41
2019-03-25T20:20:05.910Z,100326.11
2019-03-25T20:22:36.919Z,100334.93
2019-03-25T20:25:07.982Z,100336.37
2019-03-25T20:27:38.626Z,100329.20
2019-03-25T20:30:10.994Z,100330.07
2019-03-25T20:32:41.509Z,100333.33
2019-03-25T20:35:12.965Z,100321.25
2019-03-25T20:37:43.301Z,100326.44
2019-03-25T20:40:14.319Z,100319.94
2019-03-25T20:42:44.888Z,100325.47
2019-03-25T20:45:18.184Z,100320.30
2019-03-25T20:47:48.147Z,100317.18
2019-03-25T20:50:19.787Z,100303.66
2019-03-25T20:52:50.359Z,100292.02
2019-03-25T20:55:20.969Z,100293.12
2019-03-25T20:57:52.610Z,100296.94
2019-03-25T21:00:28.983Z,100303.75
2019-03-25T21:02:59.867Z,100318.41
2019-03-25T21:05:31.276Z,100312.94
2019-03-25T21:08:01.713Z,100299.40
2019-03-25T21:10:32.398Z,100302.05
2019-03-25T21:13:03.168Z,100303.86
2019-03-25T21:15:33.664Z,100302.50
2019-03-25T21:18:04.288Z,100293.66
2019-03-25T21:20:35.655Z,100289.89
2019-03-25T21:23:06.080Z,100295.56
2019-03-25T21:25:37.898Z,100294.00
2019-03-25T21:28:08.533Z,100286.89
2019-03-25T21:30:47.767Z,100287.63
2019-03-25T21:33:12.584Z,100278.61
2019-03-25T21:35:43.510Z,100270.47
2019-03-25T21:38:14.969Z,100271.27
2019-03-25T21:40:45.633Z,100261.86
2019-03-25T21:43:16.262Z,100275.34
2019-03-25T21:45:47.394Z,100277.20
2019-03-25T21:48:19.806Z,100282.08
2019-03-25T21:50:51.207Z,100282.08
2019-03-25T21:53:22.188Z,100299.20
2019-03-25T21:55:55.358Z,100306.91
2019-03-25T21:58:25.805Z,100303.74
2019-03-25T22:00:56.565Z,100307.03
2019-03-25T22:03:27.132Z,100311.25
2019-03-25T22:05:58.449Z,100299.36
2019-03-25T22:08:28.977Z,100296.00
2019-03-25T22:10:59.709Z,100302.44
2019-03-25T22:13:30.218Z,100297.66
2019-03-25T22:16:02.299Z,100303.28
2019-03-25T22:18:32.820Z,100279.19
2019-03-25T22:21:07.309Z,100282.80
2019-03-25T22:23:37.772Z,100298.89
2019-03-25T22:26:08.301Z,100298.56
2019-03-25T22:28:40.055Z,100287.05
2019-03-25T22:31:10.582Z,100293.81
2019-03-25T22:33:41.219Z,100291.86
2019-03-25T22:36:11.742Z,100301.22
2019-03-25T22:38:42.170Z,100289.21
2019-03-25T22:41:14.232Z,100310.28
2019-03-25T22:43:46.500Z,100307.00
2019-03-25T22:46:17.440Z,100308.58
2019-03-25T22:48:49.103Z,100315.80
2019-03-25T22:51:21.358Z,100312.63
2019-03-25T22:53:51.788Z,100320.03
2019-03-25T22:56:22.925Z,100286.39
2019-03-25T22:58:54.783Z,100299.23
2019-03-25T23:01:25.829Z,100285.52
2019-03-25T23:03:56.147Z,100295.95
2019-03-25T23:06:26.881Z,100292.73
2019-03-25T23:08:57.206Z,100292.94
2019-03-25T23:11:27.833Z,100311.17
2019-03-25T23:13:58.275Z,100305.56
2019-03-25T23:16:29.606Z,100298.97
2019-03-25T23:19:00.239Z,100308.84
2019-03-25T23:21:30.864Z,100302.35
2019-03-25T23:24:01.535Z,100305.20
2019-03-25T23:26:32.124Z,100298.28
2019-03-25T23:29:03.576Z,100314.91
2019-03-25T23:31:34.607Z,100311.05
2019-03-25T23:34:07.498Z,100316.95
2019-03-25T23:36:39.667Z,100321.41
2019-03-25T23:39:10.090Z,100328.00
2019-03-25T23:41:40.718Z,100324.98
2019-03-25T23:44:12.065Z,100322.03
2019-03-25T23:46:43.516Z,100333.28
2019-03-25T23:49:13.969Z,100323.83
2019-03-25T23:51:44.571Z,100336.86
2019-03-25T23:54:17.358Z,100333.15
2019-03-25T23:56:47.983Z,100331.11
2019-03-25T23:59:19.322Z,100329.67
